sensor_id;sensor_type;location;lat;lon;timestamp;P1;durP1;ratioP1;P2;durP2;ratioP2
359;SDS011;168;48.872;9.226;2022-10-19T00:00:59;16.13;;;14.47;;
359;SDS011;168;48.872;9.226;2022-10-19T00:03:29;16.00;;;14.47;;
359;SDS011;168;48.872;9.226;2022-10-19T00:05:58;16.23;;;14.53;;
359;SDS011;168;48.872;9.226;2022-10-19T00:08:26;15.47;;;13.77;;
359;SDS011;168;48.872;9.226;2022-10-19T00:10:53;16.30;;;14.70;;
359;SDS011;168;48.872;9.226;2022-10-19T00:13:20;16.07;;;14.37;;
359;SDS011;168;48.872;9.226;2022-10-19T00:15:48;17.23;;;14.80;;
359;SDS011;168;48.872;9.226;2022-10-19T00:18:15;17.47;;;15.43;;
359;SDS011;168;48.872;9.226;2022-10-19T00:20:44;18.20;;;16.30;;
359;SDS011;168;48.872;9.226;2022-10-19T00:23:25;17.43;;;15.60;;
359;SDS011;168;48.872;9.226;2022-10-19T00:25:53;16.60;;;14.83;;
359;SDS011;168;48.872;9.226;2022-10-19T00:28:21;16.50;;;14.73;;
359;SDS011;168;48.872;9.226;2022-10-19T00:30:49;19.53;;;14.67;;
359;SDS011;168;48.872;9.226;2022-10-19T00:33:16;24.87;;;17.30;;
359;SDS011;168;48.872;9.226;2022-10-19T00:35:48;26.57;;;17.80;;
359;SDS011;168;48.872;9.226;2022-10-19T00:38:16;22.50;;;18.33;;
359;SDS011;168;48.872;9.226;2022-10-19T00:40:45;27.50;;;18.83;;
359;SDS011;168;48.872;9.226;2022-10-19T00:43:14;29.10;;;18.67;;
359;SDS011;168;48.872;9.226;2022-10-19T00:45:43;37.13;;;18.57;;
359;SDS011;168;48.872;9.226;2022-10-19T00:48:12;24.97;;;16.50;;
359;SDS011;168;48.872;9.226;2022-10-19T00:50:42;24.37;;;17.40;;
359;SDS011;168;48.872;9.226;2022-10-19T00:53:13;28.10;;;18.20;;
359;SDS011;168;48.872;9.226;2022-10-19T00:55:41;28.33;;;18.07;;
359;SDS011;168;48.872;9.226;2022-10-19T00:58:09;20.10;;;16.00;;
359;SDS011;168;48.872;9.226;2022-10-19T01:00:36;22.27;;;16.10;;
359;SDS011;168;48.872;9.226;2022-10-19T01:03:04;15.63;;;13.70;;
359;SDS011;168;48.872;9.226;2022-10-19T01:05:34;17.83;;;14.77;;
359;SDS011;168;48.872;9.226;2022-10-19T01:08:02;18.07;;;14.03;;
359;SDS011;168;48.872;9.226;2022-10-19T01:10:35;16.33;;;13.90;;
359;SDS011;168;48.872;9.226;2022-10-19T01:13:14;18.37;;;15.50;;
359;SDS011;168;48.872;9.226;2022-10-19T01:15:52;22.00;;;16.50;;
359;SDS011;168;48.872;9.226;2022-10-19T01:18:24;28.70;;;17.70;;
359;SDS011;168;48.872;9.226;2022-10-19T01:21:11;26.63;;;17.73;;
359;SDS011;168;48.872;9.226;2022-10-19T01:27:20;23.40;;;18.23;;
359;SDS011;168;48.872;9.226;2022-10-19T01:30:09;45.90;;;21.87;;
359;SDS011;168;48.872;9.226;2022-10-19T01:32:43;36.60;;;23.07;;
359;SDS011;168;48.872;9.226;2022-10-19T01:35:23;24.27;;;21.33;;
359;SDS011;168;48.872;9.226;2022-10-19T01:37:56;39.67;;;22.63;;
359;SDS011;168;48.872;9.226;2022-10-19T01:40:33;27.23;;;21.47;;
359;SDS011;168;48.872;9.226;2022-10-19T01:43:09;22.97;;;20.13;;
359;SDS011;168;48.872;9.226;2022-10-19T01:45:47;30.47;;;20.40;;
359;SDS011;168;48.872;9.226;2022-10-19T01:48:20;33.70;;;21.00;;
359;SDS011;168;48.872;9.226;2022-10-19T01:50:53;24.57;;;19.90;;
359;SDS011;168;48.872;9.226;2022-10-19T01:53:24;26.37;;;19.67;;
359;SDS011;168;48.872;9.226;2022-10-19T01:55:54;28.17;;;20.53;;
359;SDS011;168;48.872;9.226;2022-10-19T01:58:24;30.60;;;22.80;;
359;SDS011;168;48.872;9.226;2022-10-19T02:00:56;23.83;;;19.43;;
359;SDS011;168;48.872;9.226;2022-10-19T02:03:27;34.63;;;21.27;;
359;SDS011;168;48.872;9.226;2022-10-19T02:05:54;26.00;;;20.70;;
359;SDS011;168;48.872;9.226;2022-10-19T02:08:24;26.27;;;21.20;;
359;SDS011;168;48.872;9.226;2022-10-19T02:10:54;30.00;;;20.40;;
359;SDS011;168;48.872;9.226;2022-10-19T02:13:23;20.53;;;18.20;;
359;SDS011;168;48.872;9.226;2022-10-19T02:15:56;22.07;;;18.50;;
359;SDS011;168;48.872;9.226;2022-10-19T02:18:27;18.70;;;15.90;;
359;SDS011;168;48.872;9.226;2022-10-19T02:20:59;22.30;;;17.10;;
359;SDS011;168;48.872;9.226;2022-10-19T02:23:27;19.97;;;15.97;;
359;SDS011;168;48.872;9.226;2022-10-19T02:25:55;19.13;;;16.17;;
359;SDS011;168;48.872;9.226;2022-10-19T02:28:23;19.50;;;15.10;;
359;SDS011;168;48.872;9.226;2022-10-19T02:30:51;15.20;;;13.70;;
359;SDS011;168;48.872;9.226;2022-10-19T02:33:20;14.50;;;13.00;;
359;SDS011;168;48.872;9.226;2022-10-19T02:35:48;15.63;;;14.23;;
359;SDS011;168;48.872;9.226;2022-10-19T02:38:16;14.37;;;12.87;;
359;SDS011;168;48.872;9.226;2022-10-19T02:40:48;14.87;;;13.50;;
359;SDS011;168;48.872;9.226;2022-10-19T02:43:22;13.80;;;12.40;;
359;SDS011;168;48.872;9.226;2022-10-19T02:45:53;15.03;;;13.63;;
359;SDS011;168;48.872;9.226;2022-10-19T02:48:28;13.23;;;12.03;;
359;SDS011;168;48.872;9.226;2022-10-19T02:50:58;15.23;;;13.63;;
359;SDS011;168;48.872;9.226;2022-10-19T02:53:25;15.07;;;13.60;;
359;SDS011;168;48.872;9.226;2022-10-19T02:55:53;19.60;;;15.60;;
359;SDS011;168;48.872;9.226;2022-10-19T02:58:20;16.60;;;14.80;;
359;SDS011;168;48.872;9.226;2022-10-19T03:00:48;18.93;;;16.90;;
359;SDS011;168;48.872;9.226;2022-10-19T03:03:15;18.77;;;15.63;;
359;SDS011;168;48.872;9.226;2022-10-19T03:05:44;24.40;;;16.67;;
359;SDS011;168;48.872;9.226;2022-10-19T03:08:11;18.10;;;15.87;;
359;SDS011;168;48.872;9.226;2022-10-19T03:10:39;20.80;;;17.23;;
359;SDS011;168;48.872;9.226;2022-10-19T03:13:07;23.10;;;16.73;;
359;SDS011;168;48.872;9.226;2022-10-19T03:15:34;21.23;;;16.57;;
359;SDS011;168;48.872;9.226;2022-10-19T03:18:02;16.33;;;14.63;;
359;SDS011;168;48.872;9.226;2022-10-19T03:20:30;16.67;;;14.80;;
359;SDS011;168;48.872;9.226;2022-10-19T03:22:59;18.03;;;15.27;;
359;SDS011;168;48.872;9.226;2022-10-19T03:25:26;18.77;;;16.07;;
359;SDS011;168;48.872;9.226;2022-10-19T03:27:54;22.03;;;16.83;;
359;SDS011;168;48.872;9.226;2022-10-19T03:30:21;23.40;;;17.27;;
359;SDS011;168;48.872;9.226;2022-10-19T03:32:49;21.23;;;16.33;;
359;SDS011;168;48.872;9.226;2022-10-19T03:35:16;23.30;;;17.20;;
359;SDS011;168;48.872;9.226;2022-10-19T03:37:44;25.37;;;17.70;;
359;SDS011;168;48.872;9.226;2022-10-19T03:40:13;24.23;;;16.70;;
359;SDS011;168;48.872;9.226;2022-10-19T03:42:41;22.53;;;18.07;;
359;SDS011;168;48.872;9.226;2022-10-19T03:45:09;22.40;;;17.17;;
359;SDS011;168;48.872;9.226;2022-10-19T03:47:36;28.77;;;18.97;;
359;SDS011;168;48.872;9.226;2022-10-19T03:50:04;21.43;;;17.23;;
359;SDS011;168;48.872;9.226;2022-10-19T03:52:35;25.10;;;19.30;;
359;SDS011;168;48.872;9.226;2022-10-19T03:55:05;25.30;;;18.40;;
359;SDS011;168;48.872;9.226;2022-10-19T03:57:36;24.47;;;17.50;;
359;SDS011;168;48.872;9.226;2022-10-19T04:00:04;23.27;;;17.57;;
359;SDS011;168;48.872;9.226;2022-10-19T04:02:31;23.50;;;17.37;;
359;SDS011;168;48.872;9.226;2022-10-19T04:04:59;26.07;;;18.97;;
359;SDS011;168;48.872;9.226;2022-10-19T04:07:27;26.77;;;17.50;;
359;SDS011;168;48.872;9.226;2022-10-19T04:09:55;23.80;;;17.50;;
359;SDS011;168;48.872;9.226;2022-10-19T04:12:23;27.30;;;18.87;;
359;SDS011;168;48.872;9.226;2022-10-19T04:14:52;24.03;;;17.87;;
359;SDS011;168;48.872;9.226;2022-10-19T04:17:20;25.00;;;18.60;;
359;SDS011;168;48.872;9.226;2022-10-19T04:19:47;20.70;;;17.00;;
359;SDS011;168;48.872;9.226;2022-10-19T04:22:14;57.13;;;19.00;;
359;SDS011;168;48.872;9.226;2022-10-19T04:24:42;22.00;;;18.23;;
359;SDS011;168;48.872;9.226;2022-10-19T04:27:09;29.87;;;20.00;;
359;SDS011;168;48.872;9.226;2022-10-19T04:29:37;21.07;;;15.93;;
359;SDS011;168;48.872;9.226;2022-10-19T04:45:34;15.60;;;13.50;;
359;SDS011;168;48.872;9.226;2022-10-19T04:48:12;18.13;;;13.97;;
359;SDS011;168;48.872;9.226;2022-10-19T04:50:53;14.60;;;13.10;;
359;SDS011;168;48.872;9.226;2022-10-19T05:13:46;18.20;;;15.97;;
359;SDS011;168;48.872;9.226;2022-10-19T05:17:03;18.17;;;16.03;;
359;SDS011;168;48.872;9.226;2022-10-19T05:19:30;16.23;;;14.63;;
359;SDS011;168;48.872;9.226;2022-10-19T05:21:57;15.90;;;14.13;;
359;SDS011;168;48.872;9.226;2022-10-19T05:24:25;14.03;;;11.50;;
359;SDS011;168;48.872;9.226;2022-10-19T05:26:52;12.30;;;11.10;;
359;SDS011;168;48.872;9.226;2022-10-19T05:29:21;16.23;;;11.97;;
359;SDS011;168;48.872;9.226;2022-10-19T05:31:49;13.33;;;11.90;;
359;SDS011;168;48.872;9.226;2022-10-19T05:34:16;14.47;;;12.13;;
359;SDS011;168;48.872;9.226;2022-10-19T05:36:43;17.37;;;11.90;;
359;SDS011;168;48.872;9.226;2022-10-19T05:39:11;43.80;;;13.93;;
359;SDS011;168;48.872;9.226;2022-10-19T05:41:41;23.43;;;12.90;;
359;SDS011;168;48.872;9.226;2022-10-19T05:44:11;29.93;;;13.07;;
359;SDS011;168;48.872;9.226;2022-10-19T05:46:42;22.20;;;12.73;;
359;SDS011;168;48.872;9.226;2022-10-19T05:49:10;19.47;;;13.07;;
359;SDS011;168;48.872;9.226;2022-10-19T05:51:38;13.40;;;11.07;;
359;SDS011;168;48.872;9.226;2022-10-19T05:54:06;12.63;;;11.33;;
359;SDS011;168;48.872;9.226;2022-10-19T05:56:33;14.17;;;12.20;;
359;SDS011;168;48.872;9.226;2022-10-19T05:59:03;13.37;;;12.07;;
359;SDS011;168;48.872;9.226;2022-10-19T06:01:33;12.53;;;11.43;;
359;SDS011;168;48.872;9.226;2022-10-19T06:04:03;13.00;;;11.10;;
359;SDS011;168;48.872;9.226;2022-10-19T06:06:31;13.10;;;11.90;;
359;SDS011;168;48.872;9.226;2022-10-19T06:08:59;12.40;;;11.20;;
359;SDS011;168;48.872;9.226;2022-10-19T06:11:28;15.00;;;12.70;;
359;SDS011;168;48.872;9.226;2022-10-19T06:14:00;13.30;;;12.03;;
359;SDS011;168;48.872;9.226;2022-10-19T06:16:34;12.53;;;11.30;;
359;SDS011;168;48.872;9.226;2022-10-19T06:19:04;12.97;;;11.77;;
359;SDS011;168;48.872;9.226;2022-10-19T06:21:32;13.93;;;12.63;;
359;SDS011;168;48.872;9.226;2022-10-19T06:24:03;11.60;;;10.50;;
359;SDS011;168;48.872;9.226;2022-10-19T06:26:34;13.03;;;11.73;;
359;SDS011;168;48.872;9.226;2022-10-19T06:29:01;13.27;;;12.00;;
359;SDS011;168;48.872;9.226;2022-10-19T06:31:31;12.33;;;11.30;;
359;SDS011;168;48.872;9.226;2022-10-19T06:34:00;14.23;;;12.70;;
359;SDS011;168;48.872;9.226;2022-10-19T06:36:29;13.40;;;12.20;;
359;SDS011;168;48.872;9.226;2022-10-19T06:38:57;12.60;;;11.40;;
359;SDS011;168;48.872;9.226;2022-10-19T06:41:27;12.17;;;11.07;;
359;SDS011;168;48.872;9.226;2022-10-19T06:43:55;13.67;;;12.23;;
359;SDS011;168;48.872;9.226;2022-10-19T06:46:49;12.87;;;11.60;;
359;SDS011;168;48.872;9.226;2022-10-19T06:49:39;13.37;;;12.07;;
359;SDS011;168;48.872;9.226;2022-10-19T06:52:08;12.80;;;11.70;;
359;SDS011;168;48.872;9.226;2022-10-19T06:54:35;11.90;;;10.80;;
359;SDS011;168;48.872;9.226;2022-10-19T06:57:03;12.93;;;11.20;;
359;SDS011;168;48.872;9.226;2022-10-19T06:59:32;11.90;;;10.80;;
359;SDS011;168;48.872;9.226;2022-10-19T07:02:22;13.23;;;12.03;;
359;SDS011;168;48.872;9.226;2022-10-19T07:05:11;13.07;;;11.77;;
359;SDS011;168;48.872;9.226;2022-10-19T07:07:46;12.87;;;11.67;;
359;SDS011;168;48.872;9.226;2022-10-19T07:13:48;12.70;;;11.47;;
359;SDS011;168;48.872;9.226;2022-10-19T07:16:18;12.30;;;11.20;;
359;SDS011;168;48.872;9.226;2022-10-19T07:18:57;13.80;;;12.50;;
359;SDS011;168;48.872;9.226;2022-10-19T07:21:26;13.07;;;11.87;;
359;SDS011;168;48.872;9.226;2022-10-19T07:23:55;13.27;;;12.00;;
359;SDS011;168;48.872;9.226;2022-10-19T07:26:23;12.60;;;11.40;;
359;SDS011;168;48.872;9.226;2022-10-19T07:28:54;13.20;;;11.90;;
359;SDS011;168;48.872;9.226;2022-10-19T07:31:23;11.33;;;10.33;;
359;SDS011;168;48.872;9.226;2022-10-19T07:33:54;12.50;;;11.23;;
359;SDS011;168;48.872;9.226;2022-10-19T07:36:23;12.70;;;11.57;;
359;SDS011;168;48.872;9.226;2022-10-19T07:38:51;11.60;;;10.50;;
359;SDS011;168;48.872;9.226;2022-10-19T07:41:21;12.73;;;11.63;;
359;SDS011;168;48.872;9.226;2022-10-19T07:43:50;12.30;;;11.10;;
359;SDS011;168;48.872;9.226;2022-10-19T07:46:19;13.03;;;11.80;;
359;SDS011;168;48.872;9.226;2022-10-19T07:48:48;12.87;;;11.60;;
359;SDS011;168;48.872;9.226;2022-10-19T07:51:16;11.97;;;10.87;;
359;SDS011;168;48.872;9.226;2022-10-19T07:53:44;12.47;;;11.20;;
359;SDS011;168;48.872;9.226;2022-10-19T07:56:12;11.97;;;10.87;;
359;SDS011;168;48.872;9.226;2022-10-19T07:58:42;12.43;;;11.23;;
359;SDS011;168;48.872;9.226;2022-10-19T08:01:10;12.33;;;11.10;;
359;SDS011;168;48.872;9.226;2022-10-19T08:03:38;13.43;;;11.60;;
359;SDS011;168;48.872;9.226;2022-10-19T08:06:07;11.27;;;9.93;;
359;SDS011;168;48.872;9.226;2022-10-19T08:08:35;9.83;;;9.10;;
359;SDS011;168;48.872;9.226;2022-10-19T08:11:06;11.13;;;9.97;;
359;SDS011;168;48.872;9.226;2022-10-19T08:13:34;10.87;;;9.80;;
359;SDS011;168;48.872;9.226;2022-10-19T08:16:03;10.87;;;9.77;;
359;SDS011;168;48.872;9.226;2022-10-19T08:18:31;11.83;;;9.93;;
359;SDS011;168;48.872;9.226;2022-10-19T08:21:01;9.83;;;9.00;;
359;SDS011;168;48.872;9.226;2022-10-19T08:23:28;10.60;;;9.70;;
359;SDS011;168;48.872;9.226;2022-10-19T08:25:56;13.03;;;10.00;;
359;SDS011;168;48.872;9.226;2022-10-19T08:28:24;10.60;;;9.70;;
359;SDS011;168;48.872;9.226;2022-10-19T08:30:51;11.10;;;10.10;;
359;SDS011;168;48.872;9.226;2022-10-19T08:33:24;10.50;;;9.50;;
359;SDS011;168;48.872;9.226;2022-10-19T08:35:52;12.20;;;10.90;;
359;SDS011;168;48.872;9.226;2022-10-19T08:38:19;9.80;;;8.90;;
359;SDS011;168;48.872;9.226;2022-10-19T08:40:46;10.57;;;9.57;;
359;SDS011;168;48.872;9.226;2022-10-19T08:43:15;11.10;;;10.13;;
359;SDS011;168;48.872;9.226;2022-10-19T08:45:49;11.93;;;10.67;;
359;SDS011;168;48.872;9.226;2022-10-19T08:48:26;10.27;;;9.37;;
359;SDS011;168;48.872;9.226;2022-10-19T08:50:55;10.50;;;9.60;;
359;SDS011;168;48.872;9.226;2022-10-19T08:53:26;10.57;;;9.67;;
359;SDS011;168;48.872;9.226;2022-10-19T08:56:07;11.77;;;10.73;;
359;SDS011;168;48.872;9.226;2022-10-19T08:58:51;11.10;;;10.10;;
359;SDS011;168;48.872;9.226;2022-10-19T09:01:30;10.23;;;9.33;;
359;SDS011;168;48.872;9.226;2022-10-19T09:04:04;9.73;;;8.87;;
359;SDS011;168;48.872;9.226;2022-10-19T09:06:36;9.53;;;8.77;;
359;SDS011;168;48.872;9.226;2022-10-19T09:09:13;9.90;;;8.60;;
359;SDS011;168;48.872;9.226;2022-10-19T09:11:45;10.50;;;9.50;;
359;SDS011;168;48.872;9.226;2022-10-19T09:14:15;8.40;;;7.70;;
359;SDS011;168;48.872;9.226;2022-10-19T09:16:46;9.00;;;8.10;;
359;SDS011;168;48.872;9.226;2022-10-19T09:19:17;8.37;;;7.60;;
359;SDS011;168;48.872;9.226;2022-10-19T09:21:51;9.17;;;7.50;;
359;SDS011;168;48.872;9.226;2022-10-19T09:24:29;7.40;;;6.70;;
359;SDS011;168;48.872;9.226;2022-10-19T09:27:03;5.83;;;5.33;;
359;SDS011;168;48.872;9.226;2022-10-19T09:29:36;6.53;;;5.93;;
359;SDS011;168;48.872;9.226;2022-10-19T09:32:09;5.77;;;5.27;;
359;SDS011;168;48.872;9.226;2022-10-19T09:34:42;7.80;;;5.50;;
359;SDS011;168;48.872;9.226;2022-10-19T09:37:12;6.73;;;5.10;;
359;SDS011;168;48.872;9.226;2022-10-19T09:39:40;5.03;;;4.53;;
359;SDS011;168;48.872;9.226;2022-10-19T09:42:09;5.30;;;4.80;;
359;SDS011;168;48.872;9.226;2022-10-19T09:44:42;4.20;;;3.90;;
359;SDS011;168;48.872;9.226;2022-10-19T09:47:18;5.37;;;4.07;;
359;SDS011;168;48.872;9.226;2022-10-19T09:50:06;4.43;;;4.07;;
359;SDS011;168;48.872;9.226;2022-10-19T09:52:39;4.03;;;3.20;;
359;SDS011;168;48.872;9.226;2022-10-19T09:55:16;4.30;;;3.90;;
359;SDS011;168;48.872;9.226;2022-10-19T09:57:50;3.63;;;3.33;;
359;SDS011;168;48.872;9.226;2022-10-19T10:00:42;3.80;;;3.40;;
359;SDS011;168;48.872;9.226;2022-10-19T10:03:24;4.10;;;3.40;;
359;SDS011;168;48.872;9.226;2022-10-19T10:05:56;3.60;;;3.30;;
359;SDS011;168;48.872;9.226;2022-10-19T10:08:26;4.20;;;3.70;;
359;SDS011;168;48.872;9.226;2022-10-19T10:10:58;3.73;;;3.33;;
359;SDS011;168;48.872;9.226;2022-10-19T10:13:35;3.70;;;3.13;;
359;SDS011;168;48.872;9.226;2022-10-19T10:16:05;3.40;;;3.20;;
359;SDS011;168;48.872;9.226;2022-10-19T10:18:35;5.87;;;3.50;;
359;SDS011;168;48.872;9.226;2022-10-19T10:21:11;3.33;;;3.13;;
359;SDS011;168;48.872;9.226;2022-10-19T10:23:40;3.97;;;3.63;;
359;SDS011;168;48.872;9.226;2022-10-19T10:26:15;3.70;;;3.40;;
359;SDS011;168;48.872;9.226;2022-10-19T10:28:47;4.73;;;4.27;;
359;SDS011;168;48.872;9.226;2022-10-19T10:31:18;4.47;;;4.13;;
359;SDS011;168;48.872;9.226;2022-10-19T10:33:53;4.33;;;3.93;;
359;SDS011;168;48.872;9.226;2022-10-19T10:36:24;3.50;;;3.30;;
359;SDS011;168;48.872;9.226;2022-10-19T10:38:55;3.60;;;3.30;;
359;SDS011;168;48.872;9.226;2022-10-19T10:41:27;4.10;;;3.80;;
359;SDS011;168;48.872;9.226;2022-10-19T10:43:57;4.07;;;3.77;;
359;SDS011;168;48.872;9.226;2022-10-19T10:46:31;3.13;;;2.90;;
359;SDS011;168;48.872;9.226;2022-10-19T10:49:01;3.90;;;3.60;;
359;SDS011;168;48.872;9.226;2022-10-19T10:51:33;4.00;;;3.70;;
359;SDS011;168;48.872;9.226;2022-10-19T10:54:14;7.30;;;3.27;;
359;SDS011;168;48.872;9.226;2022-10-19T10:56:58;2.60;;;2.50;;
359;SDS011;168;48.872;9.226;2022-10-19T10:59:34;3.93;;;3.50;;
359;SDS011;168;48.872;9.226;2022-10-19T11:02:11;4.50;;;4.10;;
359;SDS011;168;48.872;9.226;2022-10-19T11:04:47;3.10;;;2.90;;
359;SDS011;168;48.872;9.226;2022-10-19T11:07:21;3.10;;;2.90;;
359;SDS011;168;48.872;9.226;2022-10-19T11:09:52;3.20;;;3.00;;
359;SDS011;168;48.872;9.226;2022-10-19T11:12:27;3.23;;;2.60;;
359;SDS011;168;48.872;9.226;2022-10-19T11:15:02;4.47;;;3.53;;
359;SDS011;168;48.872;9.226;2022-10-19T11:17:38;3.33;;;3.13;;
359;SDS011;168;48.872;9.226;2022-10-19T11:20:23;3.70;;;3.40;;
359;SDS011;168;48.872;9.226;2022-10-19T11:22:59;4.10;;;3.50;;
359;SDS011;168;48.872;9.226;2022-10-19T11:25:34;3.50;;;3.20;;
359;SDS011;168;48.872;9.226;2022-10-19T11:28:15;4.40;;;3.33;;
359;SDS011;168;48.872;9.226;2022-10-19T11:30:54;4.73;;;4.37;;
359;SDS011;168;48.872;9.226;2022-10-19T11:33:30;4.70;;;4.40;;
359;SDS011;168;48.872;9.226;2022-10-19T11:36:07;3.90;;;3.70;;
359;SDS011;168;48.872;9.226;2022-10-19T11:38:45;3.73;;;3.47;;
359;SDS011;168;48.872;9.226;2022-10-19T11:41:22;4.00;;;3.70;;
359;SDS011;168;48.872;9.226;2022-10-19T11:44:00;4.47;;;4.17;;
359;SDS011;168;48.872;9.226;2022-10-19T11:46:37;4.13;;;3.83;;
359;SDS011;168;48.872;9.226;2022-10-19T11:49:15;4.67;;;4.27;;
359;SDS011;168;48.872;9.226;2022-10-19T11:51:54;4.80;;;4.40;;
359;SDS011;168;48.872;9.226;2022-10-19T11:54:32;4.43;;;4.03;;
359;SDS011;168;48.872;9.226;2022-10-19T11:57:08;3.93;;;3.63;;
359;SDS011;168;48.872;9.226;2022-10-19T11:59:44;3.70;;;3.40;;
359;SDS011;168;48.872;9.226;2022-10-19T12:02:42;3.73;;;3.53;;
359;SDS011;168;48.872;9.226;2022-10-19T12:05:32;3.33;;;3.03;;
359;SDS011;168;48.872;9.226;2022-10-19T12:08:10;3.90;;;3.40;;
359;SDS011;168;48.872;9.226;2022-10-19T12:10:46;3.90;;;3.53;;
359;SDS011;168;48.872;9.226;2022-10-19T12:13:18;2.80;;;2.60;;
359;SDS011;168;48.872;9.226;2022-10-19T12:15:52;3.13;;;2.67;;
359;SDS011;168;48.872;9.226;2022-10-19T12:18:22;3.53;;;2.90;;
359;SDS011;168;48.872;9.226;2022-10-19T12:20:57;3.60;;;3.27;;
359;SDS011;168;48.872;9.226;2022-10-19T12:23:28;3.10;;;2.90;;
359;SDS011;168;48.872;9.226;2022-10-19T12:26:00;3.23;;;3.03;;
359;SDS011;168;48.872;9.226;2022-10-19T12:28:30;3.00;;;2.80;;
359;SDS011;168;48.872;9.226;2022-10-19T12:30:59;3.90;;;3.23;;
359;SDS011;168;48.872;9.226;2022-10-19T12:33:30;2.70;;;2.50;;
359;SDS011;168;48.872;9.226;2022-10-19T12:36:13;2.73;;;2.60;;
359;SDS011;168;48.872;9.226;2022-10-19T12:38:49;4.07;;;3.00;;
359;SDS011;168;48.872;9.226;2022-10-19T12:41:25;3.10;;;2.83;;
359;SDS011;168;48.872;9.226;2022-10-19T12:44:11;4.23;;;3.20;;
359;SDS011;168;48.872;9.226;2022-10-19T12:46:50;3.40;;;3.10;;
359;SDS011;168;48.872;9.226;2022-10-19T12:55:09;4.70;;;4.30;;
359;SDS011;168;48.872;9.226;2022-10-19T12:57:57;3.80;;;3.30;;
359;SDS011;168;48.872;9.226;2022-10-19T13:00:28;4.10;;;3.80;;
359;SDS011;168;48.872;9.226;2022-10-19T13:02:59;3.83;;;3.60;;
359;SDS011;168;48.872;9.226;2022-10-19T13:05:29;3.30;;;3.00;;
359;SDS011;168;48.872;9.226;2022-10-19T13:07:59;3.63;;;3.33;;
359;SDS011;168;48.872;9.226;2022-10-19T13:10:28;2.93;;;2.70;;
359;SDS011;168;48.872;9.226;2022-10-19T13:12:59;4.50;;;3.67;;
359;SDS011;168;48.872;9.226;2022-10-19T13:21:42;5.93;;;4.43;;
359;SDS011;168;48.872;9.226;2022-10-19T13:24:31;3.87;;;3.57;;
359;SDS011;168;48.872;9.226;2022-10-19T13:29:59;4.53;;;4.00;;
359;SDS011;168;48.872;9.226;2022-10-19T13:32:30;3.83;;;3.53;;
359;SDS011;168;48.872;9.226;2022-10-19T13:40:55;4.17;;;3.77;;
359;SDS011;168;48.872;9.226;2022-10-19T13:43:29;4.40;;;4.10;;
359;SDS011;168;48.872;9.226;2022-10-19T13:46:04;3.90;;;3.60;;
359;SDS011;168;48.872;9.226;2022-10-19T13:48:41;3.33;;;3.03;;
359;SDS011;168;48.872;9.226;2022-10-19T13:51:22;4.17;;;3.77;;
359;SDS011;168;48.872;9.226;2022-10-19T13:53:58;4.17;;;3.77;;
359;SDS011;168;48.872;9.226;2022-10-19T13:56:36;5.20;;;3.60;;
359;SDS011;168;48.872;9.226;2022-10-19T14:08:49;3.13;;;2.90;;
359;SDS011;168;48.872;9.226;2022-10-19T14:11:45;2.97;;;2.77;;
359;SDS011;168;48.872;9.226;2022-10-19T14:14:16;2.77;;;2.57;;
359;SDS011;168;48.872;9.226;2022-10-19T14:16:50;2.70;;;2.50;;
359;SDS011;168;48.872;9.226;2022-10-19T14:19:23;3.00;;;2.80;;
359;SDS011;168;48.872;9.226;2022-10-19T14:21:56;2.70;;;2.50;;
359;SDS011;168;48.872;9.226;2022-10-19T14:24:26;3.43;;;3.13;;
359;SDS011;168;48.872;9.226;2022-10-19T14:26:56;3.17;;;2.97;;
359;SDS011;168;48.872;9.226;2022-10-19T14:29:25;2.83;;;2.63;;
359;SDS011;168;48.872;9.226;2022-10-19T14:31:52;3.23;;;2.50;;
359;SDS011;168;48.872;9.226;2022-10-19T14:34:21;2.97;;;2.70;;
359;SDS011;168;48.872;9.226;2022-10-19T14:36:49;3.53;;;2.83;;
359;SDS011;168;48.872;9.226;2022-10-19T14:39:20;4.67;;;2.97;;
359;SDS011;168;48.872;9.226;2022-10-19T14:41:51;3.70;;;3.07;;
359;SDS011;168;48.872;9.226;2022-10-19T14:44:26;5.60;;;3.10;;
359;SDS011;168;48.872;9.226;2022-10-19T14:47:00;3.53;;;3.23;;
359;SDS011;168;48.872;9.226;2022-10-19T14:49:33;3.17;;;2.97;;
359;SDS011;168;48.872;9.226;2022-10-19T14:52:00;2.80;;;2.60;;
359;SDS011;168;48.872;9.226;2022-10-19T14:54:30;3.47;;;2.90;;
359;SDS011;168;48.872;9.226;2022-10-19T14:57:02;3.53;;;3.23;;
359;SDS011;168;48.872;9.226;2022-10-19T14:59:33;4.00;;;3.60;;
359;SDS011;168;48.872;9.226;2022-10-19T15:02:04;3.50;;;3.30;;
359;SDS011;168;48.872;9.226;2022-10-19T15:04:42;3.00;;;2.80;;
359;SDS011;168;48.872;9.226;2022-10-19T15:07:14;4.00;;;3.70;;
359;SDS011;168;48.872;9.226;2022-10-19T15:09:47;4.77;;;4.23;;
359;SDS011;168;48.872;9.226;2022-10-19T15:12:19;4.00;;;3.60;;
359;SDS011;168;48.872;9.226;2022-10-19T15:14:51;4.93;;;4.50;;
359;SDS011;168;48.872;9.226;2022-10-19T15:17:22;4.07;;;3.73;;
359;SDS011;168;48.872;9.226;2022-10-19T15:19:53;4.20;;;3.90;;
359;SDS011;168;48.872;9.226;2022-10-19T15:22:28;3.13;;;2.93;;
359;SDS011;168;48.872;9.226;2022-10-19T15:28:17;5.00;;;3.20;;
359;SDS011;168;48.872;9.226;2022-10-19T15:30:55;3.73;;;3.53;;
359;SDS011;168;48.872;9.226;2022-10-19T15:33:23;3.50;;;3.30;;
359;SDS011;168;48.872;9.226;2022-10-19T15:36:02;4.07;;;3.67;;
359;SDS011;168;48.872;9.226;2022-10-19T15:38:32;3.80;;;3.60;;
359;SDS011;168;48.872;9.226;2022-10-19T15:41:00;3.57;;;3.37;;
359;SDS011;168;48.872;9.226;2022-10-19T15:43:36;4.57;;;4.27;;
359;SDS011;168;48.872;9.226;2022-10-19T15:46:19;5.60;;;4.47;;
359;SDS011;168;48.872;9.226;2022-10-19T15:48:48;5.30;;;4.30;;
359;SDS011;168;48.872;9.226;2022-10-19T15:54:16;4.70;;;4.00;;
359;SDS011;168;48.872;9.226;2022-10-19T15:56:45;3.70;;;3.50;;
359;SDS011;168;48.872;9.226;2022-10-19T15:59:16;4.37;;;4.07;;
359;SDS011;168;48.872;9.226;2022-10-19T16:01:45;4.87;;;4.50;;
359;SDS011;168;48.872;9.226;2022-10-19T16:04:14;4.63;;;4.33;;
359;SDS011;168;48.872;9.226;2022-10-19T16:06:42;4.63;;;4.23;;
359;SDS011;168;48.872;9.226;2022-10-19T16:09:16;4.93;;;4.50;;
359;SDS011;168;48.872;9.226;2022-10-19T16:11:45;5.23;;;4.87;;
359;SDS011;168;48.872;9.226;2022-10-19T16:14:13;5.60;;;5.10;;
359;SDS011;168;48.872;9.226;2022-10-19T16:16:40;5.67;;;5.17;;
359;SDS011;168;48.872;9.226;2022-10-19T16:19:08;6.07;;;5.47;;
359;SDS011;168;48.872;9.226;2022-10-19T16:21:36;6.60;;;6.00;;
359;SDS011;168;48.872;9.226;2022-10-19T16:24:03;5.70;;;5.30;;
359;SDS011;168;48.872;9.226;2022-10-19T16:26:32;5.23;;;4.83;;
359;SDS011;168;48.872;9.226;2022-10-19T16:29:00;5.50;;;5.00;;
359;SDS011;168;48.872;9.226;2022-10-19T16:31:28;5.70;;;5.30;;
359;SDS011;168;48.872;9.226;2022-10-19T16:33:56;6.13;;;5.60;;
359;SDS011;168;48.872;9.226;2022-10-19T16:36:23;6.03;;;5.53;;
359;SDS011;168;48.872;9.226;2022-10-19T16:38:51;6.67;;;6.10;;
359;SDS011;168;48.872;9.226;2022-10-19T16:41:18;6.00;;;5.53;;
359;SDS011;168;48.872;9.226;2022-10-19T16:43:52;5.87;;;5.47;;
359;SDS011;168;48.872;9.226;2022-10-19T16:46:20;6.53;;;6.03;;
359;SDS011;168;48.872;9.226;2022-10-19T16:48:48;6.87;;;6.27;;
359;SDS011;168;48.872;9.226;2022-10-19T16:51:19;7.43;;;6.83;;
359;SDS011;168;48.872;9.226;2022-10-19T16:53:58;7.87;;;7.10;;
359;SDS011;168;48.872;9.226;2022-10-19T16:56:26;7.87;;;7.27;;
359;SDS011;168;48.872;9.226;2022-10-19T16:58:57;8.00;;;7.40;;
359;SDS011;168;48.872;9.226;2022-10-19T17:01:27;8.20;;;7.50;;
359;SDS011;168;48.872;9.226;2022-10-19T17:03:55;8.57;;;7.77;;
359;SDS011;168;48.872;9.226;2022-10-19T17:06:23;7.60;;;7.00;;
359;SDS011;168;48.872;9.226;2022-10-19T17:08:53;8.70;;;8.00;;
359;SDS011;168;48.872;9.226;2022-10-19T17:11:22;9.40;;;8.70;;
359;SDS011;168;48.872;9.226;2022-10-19T17:13:51;8.60;;;7.90;;
359;SDS011;168;48.872;9.226;2022-10-19T17:16:24;9.20;;;8.30;;